Marin-707 — 9GDT — position and weather

sailwx.info

Track history (hours):
 
Tides and Currents Weather Stations Pressure Air Temp Water Temp Dewpoint Dewpoint Depression Visibility Wind Speed Wind Dir Waves Ship Positions

Marin-707

Last reported at 2017-Oct-15 13:29 UTC. Time now 2017-Oct-20 14:11 UTC.
Position N 05°33' E 000°16'.

Length 60 m.

MMSI: 627880000.

Date/timePositionNaut miles runAvg speedWind from/ knotsBaromVisibWave heightAir tempDewpointWater temp
2017-Oct-15 13:29N 05°33' E 000°16'4 8.7
2017-Oct-15 13:00N 05°36' E 000°13'4 7.6
2017-Oct-15 12:30N 05°38' E 000°11'3 6.9
2017-Oct-15 12:00N 05°41' E 000°09'0 0.7
2017-Oct-15 11:30N 05°41' E 000°09'0 0.6
2017-Oct-15 11:00N 05°40' E 000°09'0 0.6
2017-Oct-15 10:30N 05°40' E 000°09'0 0.5
2017-Oct-15 10:00N 05°40' E 000°08'1 1.3
2017-Oct-15 09:30N 05°40' E 000°08'1 2.7
2017-Oct-15 09:00N 05°39' E 000°06'0 0.7
2017-Oct-15 08:30N 05°39' E 000°07'1 1.7
2017-Oct-15 08:00N 05°39' E 000°06'5 9.5
2017-Oct-15 07:30N 05°38' E 000°01'0 0.7
2017-Oct-15 07:00N 05°38' E 000°01'0 0.0
2017-Oct-15 06:30N 05°38' E 000°01'0 0.0
2017-Oct-15 06:00N 05°38' E 000°01'0 0.0
2017-Oct-15 05:30N 05°38' E 000°01'0 0.0
2017-Oct-15 05:00N 05°38' E 000°01'0 0.0
2017-Oct-15 04:30N 05°38' E 000°01'0 0.0
2017-Oct-15 04:00N 05°38' E 000°01'0 0.0
2017-Oct-15 03:30N 05°38' E 000°01'0 0.0
2017-Oct-15 03:00N 05°38' E 000°01'0 0.0
2017-Oct-15 02:30N 05°38' E 000°01'0 0.0
2017-Oct-15 02:00N 05°38' E 000°01'0 0.0
2017-Oct-15 01:30N 05°38' E 000°01'0 0.0
2017-Oct-15 01:00N 05°38' E 000°01'0 0.0
2017-Oct-15 00:30N 05°38' E 000°01'0 0.0
2017-Oct-15 00:00N 05°38' E 000°01'0 0.0
2017-Oct-14 23:30N 05°38' E 000°01'0 0.0
2017-Oct-14 23:00N 05°38' E 000°01'0 0.0
2017-Oct-14 22:30N 05°38' E 000°01'0 0.0
2017-Oct-14 22:00N 05°38' E 000°01'0 0.0
2017-Oct-14 21:30N 05°38' E 000°01'0 0.0
2017-Oct-14 21:00N 05°38' E 000°01'0 0.0
2017-Oct-14 20:30N 05°38' E 000°01'0 0.0
2017-Oct-14 20:00N 05°38' E 000°01'0 0.0
2017-Oct-14 19:30N 05°38' E 000°01'0 0.0
2017-Oct-14 19:00N 05°38' E 000°01'0 0.0
2017-Oct-14 18:30N 05°38' E 000°01'0 0.0
2017-Oct-14 18:00N 05°38' E 000°01'0 0.0
2017-Oct-14 17:30N 05°38' E 000°01'0 0.0
2017-Oct-14 17:00N 05°38' E 000°01'0 0.0
2017-Oct-14 16:30N 05°38' E 000°01'0 0.0
2017-Oct-14 16:00N 05°38' E 000°01'0 0.0
2017-Oct-14 15:30N 05°38' E 000°01'0 0.0
2017-Oct-14 15:00N 05°38' E 000°01'0 0.0
2017-Oct-14 14:30N 05°38' E 000°01'0 0.0
2017-Oct-14 14:00N 05°38' E 000°01'0 0.0
2017-Oct-14 13:30N 05°38' E 000°01'0 0.0
2017-Oct-14 13:00N 05°38' E 000°01'0 0.0
2017-Oct-14 12:30N 05°38' E 000°01'0 0.0
2017-Oct-14 12:00N 05°38' E 000°01'0 0.0
2017-Oct-14 11:30N 05°38' E 000°01'0 0.0
2017-Oct-14 11:00N 05°38' E 000°01'0 0.0
2017-Oct-14 10:30N 05°38' E 000°01'0 0.0
2017-Oct-14 10:00N 05°38' E 000°01'0 0.0
2017-Oct-14 09:30N 05°38' E 000°01'0 0.0
2017-Oct-14 09:00N 05°38' E 000°01'0 0.0
2017-Oct-14 08:30N 05°38' E 000°01'0 0.0
2017-Oct-14 08:00N 05°38' E 000°01'0 0.0
2017-Oct-14 07:30N 05°38' E 000°01'0 0.0
2017-Oct-14 07:00N 05°38' E 000°01'0 0.0
2017-Oct-14 06:30N 05°38' E 000°01'0 0.0
2017-Oct-14 06:00N 05°38' E 000°01'0 0.0
2017-Oct-14 05:30N 05°38' E 000°01'0 0.0
2017-Oct-14 05:00N 05°38' E 000°01'0 0.0
2017-Oct-14 04:30N 05°38' E 000°01'0 0.0
2017-Oct-14 04:00N 05°38' E 000°01'0 0.0
2017-Oct-14 03:30N 05°38' E 000°01'0 0.0
2017-Oct-14 03:00N 05°38' E 000°01'0 0.0
2017-Oct-14 02:30N 05°38' E 000°01'0 0.0
2017-Oct-14 02:00N 05°38' E 000°01'0 0.0
2017-Oct-14 01:30N 05°38' E 000°01'0 0.0
2017-Oct-14 01:00N 05°38' E 000°01'0 0.0
2017-Oct-14 00:30N 05°38' E 000°01'0 0.0
2017-Oct-14 00:00N 05°38' E 000°01'0 0.0
2017-Oct-13 23:30N 05°38' E 000°01'0 0.0
2017-Oct-13 23:00N 05°38' E 000°01'0 0.0
2017-Oct-13 22:30N 05°38' E 000°01'0 0.0
2017-Oct-13 22:00N 05°38' E 000°01'0 0.0
2017-Oct-13 21:30N 05°38' E 000°01'0 0.0
2017-Oct-13 21:00N 05°38' E 000°01'0 0.0
2017-Oct-13 20:30N 05°38' E 000°01'0 0.0
2017-Oct-13 20:00N 05°38' E 000°01'0 0.0
2017-Oct-13 19:30N 05°38' E 000°01'0 0.0
2017-Oct-13 19:00N 05°38' E 000°01'0 0.0
2017-Oct-13 18:30N 05°38' E 000°01'0 0.0
2017-Oct-13 18:00N 05°38' E 000°01'0 0.0
2017-Oct-13 17:30N 05°38' E 000°01'0 0.0
2017-Oct-13 17:00N 05°38' E 000°01'0 0.0
2017-Oct-13 16:30N 05°38' E 000°01'0 0.0
2017-Oct-13 16:00N 05°38' E 000°01'0 0.0
2017-Oct-13 15:30N 05°38' E 000°01'0 0.0
2017-Oct-13 15:00N 05°38' E 000°01'0 0.0
2017-Oct-13 14:30N 05°38' E 000°01'0 0.0
2017-Oct-13 14:00N 05°38' E 000°01'0 0.0
2017-Oct-13 13:30N 05°38' E 000°01'0 0.0
2017-Oct-13 13:00N 05°38' E 000°01'0 0.0
2017-Oct-13 12:30N 05°38' E 000°01'0 0.0
2017-Oct-13 12:00N 05°38' E 000°01'0 0.0
2017-Oct-13 11:30N 05°38' E 000°01'0 0.0
2017-Oct-13 11:00N 05°38' E 000°01'0 0.0
2017-Oct-13 10:30N 05°38' E 000°01'0 0.0
2017-Oct-13 10:00N 05°38' E 000°01'0 0.0
2017-Oct-13 09:30N 05°38' E 000°01'0 0.0
2017-Oct-13 09:00N 05°38' E 000°01'0 0.0
2017-Oct-13 08:30N 05°38' E 000°01'0 0.0
2017-Oct-13 08:00N 05°38' E 000°01'0 0.0
2017-Oct-13 07:30N 05°38' E 000°01'0 0.0
2017-Oct-13 07:00N 05°38' E 000°01'0 0.0
2017-Oct-13 06:30N 05°38' E 000°01'0 0.0
2017-Oct-13 06:00N 05°38' E 000°01'0 0.0
2017-Oct-13 05:30N 05°38' E 000°01'0 0.0
2017-Oct-13 05:00N 05°38' E 000°01'0 0.0
2017-Oct-13 04:30N 05°38' E 000°01'0 0.0
2017-Oct-13 04:00N 05°38' E 000°01'0 0.0
2017-Oct-13 03:30N 05°38' E 000°01'0 0.0
2017-Oct-13 03:00N 05°38' E 000°01'0 0.0
2017-Oct-13 02:30N 05°38' E 000°01'0 0.0
2017-Oct-13 02:00N 05°38' E 000°01'0 0.0
2017-Oct-13 01:30N 05°38' E 000°01'0 0.0
2017-Oct-13 01:00N 05°38' E 000°01'0 0.0
2017-Oct-13 00:30N 05°38' E 000°01'0 0.0
2017-Oct-13 00:00N 05°38' E 000°01'0 0.0
2017-Oct-12 23:30N 05°38' E 000°01'0 0.0
2017-Oct-12 23:00N 05°38' E 000°01'0 0.0
2017-Oct-12 22:30N 05°38' E 000°01'0 0.0
2017-Oct-12 22:00N 05°38' E 000°01'0 0.0
2017-Oct-12 21:30N 05°38' E 000°01'0 0.0
2017-Oct-12 21:00N 05°38' E 000°01'0 0.0
2017-Oct-12 20:30N 05°38' E 000°01'0 0.0
2017-Oct-12 20:00N 05°38' E 000°01'0 0.0
2017-Oct-12 19:30N 05°38' E 000°01'0 0.0
2017-Oct-12 19:00N 05°38' E 000°01'0 0.0
2017-Oct-12 18:30N 05°38' E 000°01'0 0.0
2017-Oct-12 18:00N 05°38' E 000°01'0 0.0
2017-Oct-12 17:30N 05°38' E 000°01'0 0.0
2017-Oct-12 17:00N 05°38' E 000°01'0 0.0
2017-Oct-12 16:30N 05°38' E 000°01'0 0.0
2017-Oct-12 16:00N 05°38' E 000°01'0 0.0
2017-Oct-12 15:30N 05°38' E 000°01'0 0.0
2017-Oct-12 15:00N 05°38' E 000°01'0 0.0
2017-Oct-12 14:30N 05°38' E 000°01'0 0.0
2017-Oct-12 14:00N 05°38' E 000°01'0 0.0
2017-Oct-12 13:30N 05°38' E 000°01'0 0.0
2017-Oct-12 13:00N 05°38' E 000°01'0 0.0
2017-Oct-12 12:30N 05°38' E 000°01'0 0.0
2017-Oct-12 12:00N 05°38' E 000°01'0 0.0
2017-Oct-12 11:30N 05°38' E 000°01'0 0.0
2017-Oct-12 11:00N 05°38' E 000°01'0 0.0
2017-Oct-12 10:30N 05°38' E 000°01'0 0.0
2017-Oct-12 10:00N 05°38' E 000°01'0 0.0
2017-Oct-12 09:30N 05°38' E 000°01'0 0.0
2017-Oct-12 09:00N 05°38' E 000°01'0 0.0
2017-Oct-12 08:30N 05°38' E 000°01'0 0.0
2017-Oct-12 08:00N 05°38' E 000°01'0 0.0
2017-Oct-12 07:30N 05°38' E 000°01'0 0.0
2017-Oct-12 07:00N 05°38' E 000°01'0 0.0
2017-Oct-12 06:30N 05°38' E 000°01'0 0.0
2017-Oct-12 06:00N 05°38' E 000°01'0 0.0
2017-Oct-12 05:30N 05°38' E 000°01'0 0.0
2017-Oct-12 05:00N 05°38' E 000°01'0 0.0
2017-Oct-12 04:30N 05°38' E 000°01'0 0.0
2017-Oct-12 04:00N 05°38' E 000°01'0 0.0
2017-Oct-12 03:30N 05°38' E 000°01'0 0.0
2017-Oct-12 03:00N 05°38' E 000°01'0 0.0
2017-Oct-12 02:30N 05°38' E 000°01'0 0.0
2017-Oct-12 02:00N 05°38' E 000°01'0 0.0
2017-Oct-12 01:30N 05°38' E 000°01'0 0.0
2017-Oct-12 01:00N 05°38' E 000°01'0 0.0
2017-Oct-12 00:30N 05°38' E 000°01'0 0.0
2017-Oct-12 00:00N 05°38' E 000°01'0 0.0
2017-Oct-11 23:30N 05°38' E 000°01'0 0.0
2017-Oct-11 23:00N 05°38' E 000°01'0 0.0
2017-Oct-11 22:30N 05°38' E 000°01'0 0.0
2017-Oct-11 22:00N 05°38' E 000°01'0 0.0
2017-Oct-11 21:30N 05°38' E 000°01'0 0.0
2017-Oct-11 21:00N 05°38' E 000°01'0 0.0
2017-Oct-11 20:30N 05°38' E 000°01'0 0.0
2017-Oct-11 20:00N 05°38' E 000°01'0 0.0
2017-Oct-11 19:30N 05°38' E 000°01'0 0.0
2017-Oct-11 19:00N 05°38' E 000°01'0 0.0
2017-Oct-11 18:30N 05°38' E 000°01'0 0.0
2017-Oct-11 18:00N 05°38' E 000°01'0 0.0
2017-Oct-11 17:30N 05°38' E 000°01'0 0.0
2017-Oct-11 17:00N 05°38' E 000°01'0 0.0
2017-Oct-11 00:00N 05°38' E 000°01'0 0.0
2017-Oct-10 23:30N 05°38' E 000°01'0 0.0
2017-Oct-10 23:00N 05°38' E 000°01'0 0.0
2017-Oct-10 22:30N 05°38' E 000°01'0 0.0
2017-Oct-10 22:00N 05°38' E 000°01'0 0.0
2017-Oct-10 21:30N 05°38' E 000°01'0 0.0
2017-Oct-10 21:00N 05°38' E 000°01'0 0.0
2017-Oct-10 20:30N 05°38' E 000°01'0 0.0
2017-Oct-10 20:00N 05°38' E 000°01'0 0.0
2017-Oct-10 19:30N 05°38' E 000°01'0 0.0
2017-Oct-10 19:00N 05°38' E 000°01'0 0.0
2017-Oct-10 18:30N 05°38' E 000°01'0 0.0
2017-Oct-10 18:00N 05°38' E 000°01'0 0.0
2017-Oct-10 17:30N 05°38' E 000°01'0 0.0
2017-Oct-10 17:00N 05°38' E 000°01'0 0.0
2017-Oct-10 16:30N 05°38' E 000°01'0 0.0
2017-Oct-10 16:00N 05°38' E 000°01'0 0.0
2017-Oct-10 15:30N 05°38' E 000°01'0 0.0
2017-Oct-10 15:00N 05°38' E 000°01'0 0.0
2017-Oct-10 14:00N 05°38' E 000°01'0 0.0
2017-Oct-10 13:30N 05°38' E 000°01'0 0.0
2017-Oct-10 13:00N 05°38' E 000°01'0 0.0
2017-Oct-10 12:30N 05°38' E 000°01'0 0.0
2017-Oct-10 12:00N 05°38' E 000°01'0 0.0
2017-Oct-10 11:30N 05°38' E 000°01'0 0.0
2017-Oct-10 11:00N 05°38' E 000°01'0 0.0
2017-Oct-10 10:30N 05°38' E 000°01'0 0.0
2017-Oct-10 10:00N 05°38' E 000°01'0 0.0
2017-Oct-10 09:30N 05°38' E 000°01'0 0.0
2017-Oct-10 09:00N 05°38' E 000°01'0 0.0
2017-Oct-10 08:30N 05°38' E 000°01'0 0.0
2017-Oct-10 08:00N 05°38' E 000°01'0 0.0
2017-Oct-10 07:30N 05°38' E 000°01'0 0.0
2017-Oct-10 07:00N 05°38' E 000°01'0 0.0
2017-Oct-10 06:30N 05°38' E 000°01'0 0.0
2017-Oct-10 06:00N 05°38' E 000°01'0 0.0
2017-Oct-10 05:30N 05°38' E 000°01'0 0.0
2017-Oct-10 05:00N 05°38' E 000°01'0 0.0
2017-Oct-10 04:30N 05°38' E 000°01'0 0.0
2017-Oct-10 04:00N 05°38' E 000°01'0 0.0
2017-Oct-10 03:30N 05°38' E 000°01'0 0.0
2017-Oct-10 03:00N 05°38' E 000°01'0 0.0
2017-Oct-10 02:30N 05°38' E 000°01'0 0.0
2017-Oct-10 02:00N 05°38' E 000°01'0 0.0
2017-Oct-10 01:30N 05°38' E 000°01'0 0.0
2017-Oct-10 01:00N 05°38' E 000°01'0 0.0
2017-Oct-10 00:30N 05°38' E 000°01'0 0.0
2017-Oct-10 00:00N 05°38' E 000°01'0 0.0
2017-Oct-09 23:30N 05°38' E 000°01'0 0.0
2017-Oct-09 23:00N 05°38' E 000°01'0 0.0
2017-Oct-09 22:30N 05°38' E 000°01'0 0.0
2017-Oct-09 22:00N 05°38' E 000°01'0 0.0
2017-Oct-09 21:30N 05°38' E 000°01'0 0.0
2017-Oct-09 21:00N 05°38' E 000°01'0 0.0
2017-Oct-09 20:30N 05°38' E 000°01'0 0.0
2017-Oct-09 20:00N 05°38' E 000°01'0 0.0
2017-Oct-09 19:30N 05°38' E 000°01'0 0.0
2017-Oct-09 19:00N 05°38' E 000°01'0 0.0
2017-Oct-09 18:30N 05°38' E 000°01'0 0.0
2017-Oct-09 18:00N 05°38' E 000°01'0 0.0
2017-Oct-09 17:30N 05°38' E 000°01'0 0.0
2017-Oct-09 17:00N 05°38' E 000°01'0 0.0
2017-Oct-09 16:30N 05°38' E 000°01'0 0.0
2017-Oct-09 16:00N 05°38' E 000°01'0 0.0
2017-Oct-09 15:30N 05°38' E 000°01'0 0.0
2017-Oct-09 15:00N 05°38' E 000°01'0 0.0
2017-Oct-09 14:30N 05°38' E 000°01'0 0.0
2017-Oct-09 14:00N 05°38' E 000°01'0 0.0
2017-Oct-09 13:30N 05°38' E 000°01'0 0.0
2017-Oct-09 13:00N 05°38' E 000°01'0 0.0
2017-Oct-09 12:30N 05°38' E 000°01'0 0.0
2017-Oct-09 12:00N 05°38' E 000°01'0 0.0
2017-Oct-09 11:30N 05°38' E 000°01'2 3.6
2017-Oct-09 11:00N 05°36' E 000°02'0 0.0
2017-Oct-09 10:30N 05°36' E 000°02'0 0.0
2017-Oct-09 10:00N 05°36' E 000°02'0 0.0
2017-Oct-09 09:30N 05°36' E 000°02'0 0.0
2017-Oct-09 09:00N 05°36' E 000°02'0 0.0
2017-Oct-09 08:30N 05°36' E 000°02'0 0.0
2017-Oct-09 08:00N 05°36' E 000°02'0 0.0
2017-Oct-09 07:30N 05°36' E 000°02'0 0.0
2017-Oct-09 07:00N 05°36' E 000°02'3 5.9
2017-Oct-09 06:30N 05°33' E 000°01'5 9.9
2017-Oct-09 06:00N 05°29' W 000°01'4 7.6
2017-Oct-09 05:30N 05°26' W 000°03'  
2017-Oct-05 15:31N 05°23' E 000°26'511.0
2017-Oct-05 15:01N 05°23' E 000°21'510.9
2017-Oct-05 14:30N 05°22' E 000°15'4 8.2
2017-Oct-05 14:00N 05°24' E 000°12'611.2
2017-Oct-05 13:30N 05°23' E 000°06'  
Track history (hours):
 
Tides and Currents Weather Stations Pressure Air Temp Water Temp Dewpoint Dewpoint Depression Visibility Wind Speed Wind Dir Waves Ship Positions

Marin-707

Last reported at 2017-Oct-15 13:29 UTC. Time now 2017-Oct-20 14:11 UTC.
Position N 05°33' E 000°16'.

Length 60 m.

MMSI: 627880000.

Date/timePositionNaut miles runAvg speedWind from/ knotsBaromVisibWave heightAir tempDewpointWater temp
2017-Oct-15 13:29N 05°33' E 000°16'4 8.7
2017-Oct-15 13:00N 05°36' E 000°13'4 7.6
2017-Oct-15 12:30N 05°38' E 000°11'3 6.9
2017-Oct-15 12:00N 05°41' E 000°09'0 0.7
2017-Oct-15 11:30N 05°41' E 000°09'0 0.6
2017-Oct-15 11:00N 05°40' E 000°09'0 0.6
2017-Oct-15 10:30N 05°40' E 000°09'0 0.5
2017-Oct-15 10:00N 05°40' E 000°08'1 1.3
2017-Oct-15 09:30N 05°40' E 000°08'1 2.7
2017-Oct-15 09:00N 05°39' E 000°06'0 0.7
2017-Oct-15 08:30N 05°39' E 000°07'1 1.7
2017-Oct-15 08:00N 05°39' E 000°06'5 9.5
2017-Oct-15 07:30N 05°38' E 000°01'0 0.7
2017-Oct-15 07:00N 05°38' E 000°01'0 0.0
2017-Oct-15 06:30N 05°38' E 000°01'0 0.0
2017-Oct-15 06:00N 05°38' E 000°01'0 0.0
2017-Oct-15 05:30N 05°38' E 000°01'0 0.0
2017-Oct-15 05:00N 05°38' E 000°01'0 0.0
2017-Oct-15 04:30N 05°38' E 000°01'0 0.0
2017-Oct-15 04:00N 05°38' E 000°01'0 0.0
2017-Oct-15 03:30N 05°38' E 000°01'0 0.0
2017-Oct-15 03:00N 05°38' E 000°01'0 0.0
2017-Oct-15 02:30N 05°38' E 000°01'0 0.0
2017-Oct-15 02:00N 05°38' E 000°01'0 0.0
2017-Oct-15 01:30N 05°38' E 000°01'0 0.0
2017-Oct-15 01:00N 05°38' E 000°01'0 0.0
2017-Oct-15 00:30N 05°38' E 000°01'0 0.0
2017-Oct-15 00:00N 05°38' E 000°01'0 0.0
2017-Oct-14 23:30N 05°38' E 000°01'0 0.0
2017-Oct-14 23:00N 05°38' E 000°01'0 0.0
2017-Oct-14 22:30N 05°38' E 000°01'0 0.0
2017-Oct-14 22:00N 05°38' E 000°01'0 0.0
2017-Oct-14 21:30N 05°38' E 000°01'0 0.0
2017-Oct-14 21:00N 05°38' E 000°01'0 0.0
2017-Oct-14 20:30N 05°38' E 000°01'0 0.0
2017-Oct-14 20:00N 05°38' E 000°01'0 0.0
2017-Oct-14 19:30N 05°38' E 000°01'0 0.0
2017-Oct-14 19:00N 05°38' E 000°01'0 0.0
2017-Oct-14 18:30N 05°38' E 000°01'0 0.0
2017-Oct-14 18:00N 05°38' E 000°01'0 0.0
2017-Oct-14 17:30N 05°38' E 000°01'0 0.0
2017-Oct-14 17:00N 05°38' E 000°01'0 0.0
2017-Oct-14 16:30N 05°38' E 000°01'0 0.0
2017-Oct-14 16:00N 05°38' E 000°01'0 0.0
2017-Oct-14 15:30N 05°38' E 000°01'0 0.0
2017-Oct-14 15:00N 05°38' E 000°01'0 0.0
2017-Oct-14 14:30N 05°38' E 000°01'0 0.0
2017-Oct-14 14:00N 05°38' E 000°01'0 0.0
2017-Oct-14 13:30N 05°38' E 000°01'0 0.0
2017-Oct-14 13:00N 05°38' E 000°01'0 0.0
2017-Oct-14 12:30N 05°38' E 000°01'0 0.0
2017-Oct-14 12:00N 05°38' E 000°01'0 0.0
2017-Oct-14 11:30N 05°38' E 000°01'0 0.0
2017-Oct-14 11:00N 05°38' E 000°01'0 0.0
2017-Oct-14 10:30N 05°38' E 000°01'0 0.0
2017-Oct-14 10:00N 05°38' E 000°01'0 0.0
2017-Oct-14 09:30N 05°38' E 000°01'0 0.0
2017-Oct-14 09:00N 05°38' E 000°01'0 0.0
2017-Oct-14 08:30N 05°38' E 000°01'0 0.0
2017-Oct-14 08:00N 05°38' E 000°01'0 0.0
2017-Oct-14 07:30N 05°38' E 000°01'0 0.0
2017-Oct-14 07:00N 05°38' E 000°01'0 0.0
2017-Oct-14 06:30N 05°38' E 000°01'0 0.0
2017-Oct-14 06:00N 05°38' E 000°01'0 0.0
2017-Oct-14 05:30N 05°38' E 000°01'0 0.0
2017-Oct-14 05:00N 05°38' E 000°01'0 0.0
2017-Oct-14 04:30N 05°38' E 000°01'0 0.0
2017-Oct-14 04:00N 05°38' E 000°01'0 0.0
2017-Oct-14 03:30N 05°38' E 000°01'0 0.0
2017-Oct-14 03:00N 05°38' E 000°01'0 0.0
2017-Oct-14 02:30N 05°38' E 000°01'0 0.0
2017-Oct-14 02:00N 05°38' E 000°01'0 0.0
2017-Oct-14 01:30N 05°38' E 000°01'0 0.0
2017-Oct-14 01:00N 05°38' E 000°01'0 0.0
2017-Oct-14 00:30N 05°38' E 000°01'0 0.0
2017-Oct-14 00:00N 05°38' E 000°01'0 0.0
2017-Oct-13 23:30N 05°38' E 000°01'0 0.0
2017-Oct-13 23:00N 05°38' E 000°01'0 0.0
2017-Oct-13 22:30N 05°38' E 000°01'0 0.0
2017-Oct-13 22:00N 05°38' E 000°01'0 0.0
2017-Oct-13 21:30N 05°38' E 000°01'0 0.0
2017-Oct-13 21:00N 05°38' E 000°01'0 0.0
2017-Oct-13 20:30N 05°38' E 000°01'0 0.0
2017-Oct-13 20:00N 05°38' E 000°01'0 0.0
2017-Oct-13 19:30N 05°38' E 000°01'0 0.0
2017-Oct-13 19:00N 05°38' E 000°01'0 0.0
2017-Oct-13 18:30N 05°38' E 000°01'0 0.0
2017-Oct-13 18:00N 05°38' E 000°01'0 0.0
2017-Oct-13 17:30N 05°38' E 000°01'0 0.0
2017-Oct-13 17:00N 05°38' E 000°01'0 0.0
2017-Oct-13 16:30N 05°38' E 000°01'0 0.0
2017-Oct-13 16:00N 05°38' E 000°01'0 0.0
2017-Oct-13 15:30N 05°38' E 000°01'0 0.0
2017-Oct-13 15:00N 05°38' E 000°01'0 0.0
2017-Oct-13 14:30N 05°38' E 000°01'0 0.0
2017-Oct-13 14:00N 05°38' E 000°01'0 0.0
2017-Oct-13 13:30N 05°38' E 000°01'0 0.0
2017-Oct-13 13:00N 05°38' E 000°01'0 0.0
2017-Oct-13 12:30N 05°38' E 000°01'0 0.0
2017-Oct-13 12:00N 05°38' E 000°01'0 0.0
2017-Oct-13 11:30N 05°38' E 000°01'0 0.0
2017-Oct-13 11:00N 05°38' E 000°01'0 0.0
2017-Oct-13 10:30N 05°38' E 000°01'0 0.0
2017-Oct-13 10:00N 05°38' E 000°01'0 0.0
2017-Oct-13 09:30N 05°38' E 000°01'0 0.0
2017-Oct-13 09:00N 05°38' E 000°01'0 0.0
2017-Oct-13 08:30N 05°38' E 000°01'0 0.0
2017-Oct-13 08:00N 05°38' E 000°01'0 0.0
2017-Oct-13 07:30N 05°38' E 000°01'0 0.0
2017-Oct-13 07:00N 05°38' E 000°01'0 0.0
2017-Oct-13 06:30N 05°38' E 000°01'0 0.0
2017-Oct-13 06:00N 05°38' E 000°01'0 0.0
2017-Oct-13 05:30N 05°38' E 000°01'0 0.0
2017-Oct-13 05:00N 05°38' E 000°01'0 0.0
2017-Oct-13 04:30N 05°38' E 000°01'0 0.0
2017-Oct-13 04:00N 05°38' E 000°01'0 0.0
2017-Oct-13 03:30N 05°38' E 000°01'0 0.0
2017-Oct-13 03:00N 05°38' E 000°01'0 0.0
2017-Oct-13 02:30N 05°38' E 000°01'0 0.0
2017-Oct-13 02:00N 05°38' E 000°01'0 0.0
2017-Oct-13 01:30N 05°38' E 000°01'0 0.0
2017-Oct-13 01:00N 05°38' E 000°01'0 0.0
2017-Oct-13 00:30N 05°38' E 000°01'0 0.0
2017-Oct-13 00:00N 05°38' E 000°01'0 0.0
2017-Oct-12 23:30N 05°38' E 000°01'0 0.0
2017-Oct-12 23:00N 05°38' E 000°01'0 0.0
2017-Oct-12 22:30N 05°38' E 000°01'0 0.0
2017-Oct-12 22:00N 05°38' E 000°01'0 0.0
2017-Oct-12 21:30N 05°38' E 000°01'0 0.0
2017-Oct-12 21:00N 05°38' E 000°01'0 0.0
2017-Oct-12 20:30N 05°38' E 000°01'0 0.0
2017-Oct-12 20:00N 05°38' E 000°01'0 0.0
2017-Oct-12 19:30N 05°38' E 000°01'0 0.0
2017-Oct-12 19:00N 05°38' E 000°01'0 0.0
2017-Oct-12 18:30N 05°38' E 000°01'0 0.0
2017-Oct-12 18:00N 05°38' E 000°01'0 0.0
2017-Oct-12 17:30N 05°38' E 000°01'0 0.0
2017-Oct-12 17:00N 05°38' E 000°01'0 0.0
2017-Oct-12 16:30N 05°38' E 000°01'0 0.0
2017-Oct-12 16:00N 05°38' E 000°01'0 0.0
2017-Oct-12 15:30N 05°38' E 000°01'0 0.0
2017-Oct-12 15:00N 05°38' E 000°01'0 0.0
2017-Oct-12 14:30N 05°38' E 000°01'0 0.0
2017-Oct-12 14:00N 05°38' E 000°01'0 0.0
2017-Oct-12 13:30N 05°38' E 000°01'0 0.0
2017-Oct-12 13:00N 05°38' E 000°01'0 0.0
2017-Oct-12 12:30N 05°38' E 000°01'0 0.0
2017-Oct-12 12:00N 05°38' E 000°01'0 0.0
2017-Oct-12 11:30N 05°38' E 000°01'0 0.0
2017-Oct-12 11:00N 05°38' E 000°01'0 0.0
2017-Oct-12 10:30N 05°38' E 000°01'0 0.0
2017-Oct-12 10:00N 05°38' E 000°01'0 0.0
2017-Oct-12 09:30N 05°38' E 000°01'0 0.0
2017-Oct-12 09:00N 05°38' E 000°01'0 0.0
2017-Oct-12 08:30N 05°38' E 000°01'0 0.0
2017-Oct-12 08:00N 05°38' E 000°01'0 0.0
2017-Oct-12 07:30N 05°38' E 000°01'0 0.0
2017-Oct-12 07:00N 05°38' E 000°01'0 0.0
2017-Oct-12 06:30N 05°38' E 000°01'0 0.0
2017-Oct-12 06:00N 05°38' E 000°01'0 0.0
2017-Oct-12 05:30N 05°38' E 000°01'0 0.0
2017-Oct-12 05:00N 05°38' E 000°01'0 0.0
2017-Oct-12 04:30N 05°38' E 000°01'0 0.0
2017-Oct-12 04:00N 05°38' E 000°01'0 0.0
2017-Oct-12 03:30N 05°38' E 000°01'0 0.0
2017-Oct-12 03:00N 05°38' E 000°01'0 0.0
2017-Oct-12 02:30N 05°38' E 000°01'0 0.0
2017-Oct-12 02:00N 05°38' E 000°01'0 0.0
2017-Oct-12 01:30N 05°38' E 000°01'0 0.0
2017-Oct-12 01:00N 05°38' E 000°01'0 0.0
2017-Oct-12 00:30N 05°38' E 000°01'0 0.0
2017-Oct-12 00:00N 05°38' E 000°01'0 0.0
2017-Oct-11 23:30N 05°38' E 000°01'0 0.0
2017-Oct-11 23:00N 05°38' E 000°01'0 0.0
2017-Oct-11 22:30N 05°38' E 000°01'0 0.0
2017-Oct-11 22:00N 05°38' E 000°01'0 0.0
2017-Oct-11 21:30N 05°38' E 000°01'0 0.0
2017-Oct-11 21:00N 05°38' E 000°01'0 0.0
2017-Oct-11 20:30N 05°38' E 000°01'0 0.0
2017-Oct-11 20:00N 05°38' E 000°01'0 0.0
2017-Oct-11 19:30N 05°38' E 000°01'0 0.0
2017-Oct-11 19:00N 05°38' E 000°01'0 0.0
2017-Oct-11 18:30N 05°38' E 000°01'0 0.0
2017-Oct-11 18:00N 05°38' E 000°01'0 0.0
2017-Oct-11 17:30N 05°38' E 000°01'0 0.0
2017-Oct-11 17:00N 05°38' E 000°01'0 0.0
2017-Oct-11 00:00N 05°38' E 000°01'0 0.0
2017-Oct-10 23:30N 05°38' E 000°01'0 0.0
2017-Oct-10 23:00N 05°38' E 000°01'0 0.0
2017-Oct-10 22:30N 05°38' E 000°01'0 0.0
2017-Oct-10 22:00N 05°38' E 000°01'0 0.0
2017-Oct-10 21:30N 05°38' E 000°01'0 0.0
2017-Oct-10 21:00N 05°38' E 000°01'0 0.0
2017-Oct-10 20:30N 05°38' E 000°01'0 0.0
2017-Oct-10 20:00N 05°38' E 000°01'0 0.0
2017-Oct-10 19:30N 05°38' E 000°01'0 0.0
2017-Oct-10 19:00N 05°38' E 000°01'0 0.0
2017-Oct-10 18:30N 05°38' E 000°01'0 0.0
2017-Oct-10 18:00N 05°38' E 000°01'0 0.0
2017-Oct-10 17:30N 05°38' E 000°01'0 0.0
2017-Oct-10 17:00N 05°38' E 000°01'0 0.0
2017-Oct-10 16:30N 05°38' E 000°01'0 0.0
2017-Oct-10 16:00N 05°38' E 000°01'0 0.0
2017-Oct-10 15:30N 05°38' E 000°01'0 0.0
2017-Oct-10 15:00N 05°38' E 000°01'0 0.0
2017-Oct-10 14:00N 05°38' E 000°01'0 0.0
2017-Oct-10 13:30N 05°38' E 000°01'0 0.0
2017-Oct-10 13:00N 05°38' E 000°01'0 0.0
2017-Oct-10 12:30N 05°38' E 000°01'0 0.0
2017-Oct-10 12:00N 05°38' E 000°01'0 0.0
2017-Oct-10 11:30N 05°38' E 000°01'0 0.0
2017-Oct-10 11:00N 05°38' E 000°01'0 0.0
2017-Oct-10 10:30N 05°38' E 000°01'0 0.0
2017-Oct-10 10:00N 05°38' E 000°01'0 0.0
2017-Oct-10 09:30N 05°38' E 000°01'0 0.0
2017-Oct-10 09:00N 05°38' E 000°01'0 0.0
2017-Oct-10 08:30N 05°38' E 000°01'0 0.0
2017-Oct-10 08:00N 05°38' E 000°01'0 0.0
2017-Oct-10 07:30N 05°38' E 000°01'0 0.0
2017-Oct-10 07:00N 05°38' E 000°01'0 0.0
2017-Oct-10 06:30N 05°38' E 000°01'0 0.0
2017-Oct-10 06:00N 05°38' E 000°01'0 0.0
2017-Oct-10 05:30N 05°38' E 000°01'0 0.0
2017-Oct-10 05:00N 05°38' E 000°01'0 0.0
2017-Oct-10 04:30N 05°38' E 000°01'0 0.0
2017-Oct-10 04:00N 05°38' E 000°01'0 0.0
2017-Oct-10 03:30N 05°38' E 000°01'0 0.0
2017-Oct-10 03:00N 05°38' E 000°01'0 0.0
2017-Oct-10 02:30N 05°38' E 000°01'0 0.0
2017-Oct-10 02:00N 05°38' E 000°01'0 0.0
2017-Oct-10 01:30N 05°38' E 000°01'0 0.0
2017-Oct-10 01:00N 05°38' E 000°01'0 0.0
2017-Oct-10 00:30N 05°38' E 000°01'0 0.0
2017-Oct-10 00:00N 05°38' E 000°01'0 0.0
2017-Oct-09 23:30N 05°38' E 000°01'0 0.0
2017-Oct-09 23:00N 05°38' E 000°01'0 0.0
2017-Oct-09 22:30N 05°38' E 000°01'0 0.0
2017-Oct-09 22:00N 05°38' E 000°01'0 0.0
2017-Oct-09 21:30N 05°38' E 000°01'0 0.0
2017-Oct-09 21:00N 05°38' E 000°01'0 0.0
2017-Oct-09 20:30N 05°38' E 000°01'0 0.0
2017-Oct-09 20:00N 05°38' E 000°01'0 0.0
2017-Oct-09 19:30N 05°38' E 000°01'0 0.0
2017-Oct-09 19:00N 05°38' E 000°01'0 0.0
2017-Oct-09 18:30N 05°38' E 000°01'0 0.0
2017-Oct-09 18:00N 05°38' E 000°01'0 0.0
2017-Oct-09 17:30N 05°38' E 000°01'0 0.0
2017-Oct-09 17:00N 05°38' E 000°01'0 0.0
2017-Oct-09 16:30N 05°38' E 000°01'0 0.0
2017-Oct-09 16:00N 05°38' E 000°01'0 0.0
2017-Oct-09 15:30N 05°38' E 000°01'0 0.0
2017-Oct-09 15:00N 05°38' E 000°01'0 0.0
2017-Oct-09 14:30N 05°38' E 000°01'0 0.0
2017-Oct-09 14:00N 05°38' E 000°01'0 0.0
2017-Oct-09 13:30N 05°38' E 000°01'0 0.0
2017-Oct-09 13:00N 05°38' E 000°01'0 0.0
2017-Oct-09 12:30N 05°38' E 000°01'0 0.0
2017-Oct-09 12:00N 05°38' E 000°01'0 0.0
2017-Oct-09 11:30N 05°38' E 000°01'2 3.6
2017-Oct-09 11:00N 05°36' E 000°02'0 0.0
2017-Oct-09 10:30N 05°36' E 000°02'0 0.0
2017-Oct-09 10:00N 05°36' E 000°02'0 0.0
2017-Oct-09 09:30N 05°36' E 000°02'0 0.0
2017-Oct-09 09:00N 05°36' E 000°02'0 0.0
2017-Oct-09 08:30N 05°36' E 000°02'0 0.0
2017-Oct-09 08:00N 05°36' E 000°02'0 0.0
2017-Oct-09 07:30N 05°36' E 000°02'0 0.0
2017-Oct-09 07:00N 05°36' E 000°02'3 5.9
2017-Oct-09 06:30N 05°33' E 000°01'5 9.9
2017-Oct-09 06:00N 05°29' W 000°01'4 7.6
2017-Oct-09 05:30N 05°26' W 000°03'  
2017-Oct-05 15:31N 05°23' E 000°26'511.0
2017-Oct-05 15:01N 05°23' E 000°21'510.9
2017-Oct-05 14:30N 05°22' E 000°15'4 8.2
2017-Oct-05 14:00N 05°24' E 000°12'611.2
2017-Oct-05 13:30N 05°23' E 000°06'  

Dump ship's entire track history